sensor_id;sensor_type;location;lat;lon;timestamp;temperature;humidity
4840;DHT22;2434;48.486;7.964;2022-09-25T00:01:29;14.00;88.60
4840;DHT22;2434;48.486;7.964;2022-09-25T00:03:58;14.00;90.40
4840;DHT22;2434;48.486;7.964;2022-09-25T00:06:29;14.40;87.20
4840;DHT22;2434;48.486;7.964;2022-09-25T00:08:59;14.60;85.80
4840;DHT22;2434;48.486;7.964;2022-09-25T00:11:30;14.80;83.20
4840;DHT22;2434;48.486;7.964;2022-09-25T00:14:00;15.00;82.30
4840;DHT22;2434;48.486;7.964;2022-09-25T00:16:30;15.00;80.90
4840;DHT22;2434;48.486;7.964;2022-09-25T00:18:59;15.10;80.40
4840;DHT22;2434;48.486;7.964;2022-09-25T00:21:46;15.20;80.30
4840;DHT22;2434;48.486;7.964;2022-09-25T00:24:19;15.20;80.50
4840;DHT22;2434;48.486;7.964;2022-09-25T00:26:48;15.20;79.60
4840;DHT22;2434;48.486;7.964;2022-09-25T00:29:18;15.10;80.50
4840;DHT22;2434;48.486;7.964;2022-09-25T00:31:47;15.20;79.80
4840;DHT22;2434;48.486;7.964;2022-09-25T00:34:16;15.20;79.50
4840;DHT22;2434;48.486;7.964;2022-09-25T00:36:46;15.20;79.60
4840;DHT22;2434;48.486;7.964;2022-09-25T00:39:14;15.20;79.90
4840;DHT22;2434;48.486;7.964;2022-09-25T00:41:43;15.20;79.80
4840;DHT22;2434;48.486;7.964;2022-09-25T00:44:50;15.20;79.90
4840;DHT22;2434;48.486;7.964;2022-09-25T00:50:19;15.20;80.50
4840;DHT22;2434;48.486;7.964;2022-09-25T00:52:52;15.20;80.00
4840;DHT22;2434;48.486;7.964;2022-09-25T00:55:23;15.20;80.10
4840;DHT22;2434;48.486;7.964;2022-09-25T00:57:53;15.20;80.10
4840;DHT22;2434;48.486;7.964;2022-09-25T01:00:23;15.20;80.10
4840;DHT22;2434;48.486;7.964;2022-09-25T01:02:52;15.20;79.80
4840;DHT22;2434;48.486;7.964;2022-09-25T01:05:25;15.10;79.80
4840;DHT22;2434;48.486;7.964;2022-09-25T01:07:58;15.10;79.80
4840;DHT22;2434;48.486;7.964;2022-09-25T01:10:27;15.10;79.90
4840;DHT22;2434;48.486;7.964;2022-09-25T01:12:56;15.10;80.30
4840;DHT22;2434;48.486;7.964;2022-09-25T01:15:30;15.10;80.30
4840;DHT22;2434;48.486;7.964;2022-09-25T01:18:12;15.10;80.10
4840;DHT22;2434;48.486;7.964;2022-09-25T01:21:04;15.00;79.80
4840;DHT22;2434;48.486;7.964;2022-09-25T01:24:00;15.00;79.30
4840;DHT22;2434;48.486;7.964;2022-09-25T01:26:55;15.00;79.70
4840;DHT22;2434;48.486;7.964;2022-09-25T01:29:37;15.00;80.40
4840;DHT22;2434;48.486;7.964;2022-09-25T01:32:10;15.00;80.50
4840;DHT22;2434;48.486;7.964;2022-09-25T01:34:44;15.00;80.50
4840;DHT22;2434;48.486;7.964;2022-09-25T01:37:22;15.00;80.60
4840;DHT22;2434;48.486;7.964;2022-09-25T01:40:04;15.00;80.40
4840;DHT22;2434;48.486;7.964;2022-09-25T01:42:38;15.00;80.30
4840;DHT22;2434;48.486;7.964;2022-09-25T01:45:13;15.00;80.50
4840;DHT22;2434;48.486;7.964;2022-09-25T01:47:45;15.00;80.60
4840;DHT22;2434;48.486;7.964;2022-09-25T01:50:19;15.00;80.70
4840;DHT22;2434;48.486;7.964;2022-09-25T01:52:53;15.00;80.50
4840;DHT22;2434;48.486;7.964;2022-09-25T01:55:29;15.00;80.80
4840;DHT22;2434;48.486;7.964;2022-09-25T01:58:01;15.00;80.90
4840;DHT22;2434;48.486;7.964;2022-09-25T02:00:34;15.00;80.40
4840;DHT22;2434;48.486;7.964;2022-09-25T02:03:08;15.00;80.80
4840;DHT22;2434;48.486;7.964;2022-09-25T02:05:41;15.00;80.50
4840;DHT22;2434;48.486;7.964;2022-09-25T02:08:15;15.00;80.40
4840;DHT22;2434;48.486;7.964;2022-09-25T02:10:47;15.00;79.90
4840;DHT22;2434;48.486;7.964;2022-09-25T02:13:20;15.00;80.00
4840;DHT22;2434;48.486;7.964;2022-09-25T02:15:55;15.00;79.60
4840;DHT22;2434;48.486;7.964;2022-09-25T02:18:24;15.00;79.40
4840;DHT22;2434;48.486;7.964;2022-09-25T02:21:13;15.00;79.80
4840;DHT22;2434;48.486;7.964;2022-09-25T02:23:49;15.00;79.70
4840;DHT22;2434;48.486;7.964;2022-09-25T02:26:25;14.90;79.80
4840;DHT22;2434;48.486;7.964;2022-09-25T02:28:54;14.90;80.00
4840;DHT22;2434;48.486;7.964;2022-09-25T02:31:28;14.90;80.10
4840;DHT22;2434;48.486;7.964;2022-09-25T02:33:58;14.90;80.20
4840;DHT22;2434;48.486;7.964;2022-09-25T02:36:26;14.90;79.50
4840;DHT22;2434;48.486;7.964;2022-09-25T02:38:55;14.90;79.60
4840;DHT22;2434;48.486;7.964;2022-09-25T02:41:42;14.80;79.50
4840;DHT22;2434;48.486;7.964;2022-09-25T02:44:20;14.80;79.90
4840;DHT22;2434;48.486;7.964;2022-09-25T02:47:02;14.80;79.40
4840;DHT22;2434;48.486;7.964;2022-09-25T02:49:39;14.80;79.50
4840;DHT22;2434;48.486;7.964;2022-09-25T02:52:12;14.80;79.30
4840;DHT22;2434;48.486;7.964;2022-09-25T02:54:45;14.80;78.90
4840;DHT22;2434;48.486;7.964;2022-09-25T02:57:22;14.80;78.70
4840;DHT22;2434;48.486;7.964;2022-09-25T02:59:56;14.70;78.60
4840;DHT22;2434;48.486;7.964;2022-09-25T03:02:28;14.70;78.60
4840;DHT22;2434;48.486;7.964;2022-09-25T03:04:58;14.70;79.40
4840;DHT22;2434;48.486;7.964;2022-09-25T03:07:27;14.70;79.80
4840;DHT22;2434;48.486;7.964;2022-09-25T03:10:16;14.70;79.60
4840;DHT22;2434;48.486;7.964;2022-09-25T03:12:44;14.70;79.20
4840;DHT22;2434;48.486;7.964;2022-09-25T03:15:13;14.60;79.50
4840;DHT22;2434;48.486;7.964;2022-09-25T03:17:43;14.60;79.50
4840;DHT22;2434;48.486;7.964;2022-09-25T03:20:12;14.60;80.20
4840;DHT22;2434;48.486;7.964;2022-09-25T03:22:40;14.60;80.50
4840;DHT22;2434;48.486;7.964;2022-09-25T03:25:09;14.60;80.40
4840;DHT22;2434;48.486;7.964;2022-09-25T03:27:37;14.60;80.30
4840;DHT22;2434;48.486;7.964;2022-09-25T03:30:07;14.60;80.40
4840;DHT22;2434;48.486;7.964;2022-09-25T03:32:35;14.60;81.10
4840;DHT22;2434;48.486;7.964;2022-09-25T03:35:07;14.60;81.20
4840;DHT22;2434;48.486;7.964;2022-09-25T03:37:35;14.60;81.40
4840;DHT22;2434;48.486;7.964;2022-09-25T03:40:05;14.60;81.20
4840;DHT22;2434;48.486;7.964;2022-09-25T03:42:34;14.60;81.60
4840;DHT22;2434;48.486;7.964;2022-09-25T03:45:05;14.60;82.20
4840;DHT22;2434;48.486;7.964;2022-09-25T03:47:35;14.50;82.60
4840;DHT22;2434;48.486;7.964;2022-09-25T03:50:07;14.50;82.80
4840;DHT22;2434;48.486;7.964;2022-09-25T03:52:36;14.50;82.80
4840;DHT22;2434;48.486;7.964;2022-09-25T03:55:05;14.60;82.50
4840;DHT22;2434;48.486;7.964;2022-09-25T03:57:34;14.60;82.40
4840;DHT22;2434;48.486;7.964;2022-09-25T04:00:03;14.50;82.10
4840;DHT22;2434;48.486;7.964;2022-09-25T04:02:39;14.50;82.20
4840;DHT22;2434;48.486;7.964;2022-09-25T04:05:09;14.60;82.00
4840;DHT22;2434;48.486;7.964;2022-09-25T04:07:38;14.60;81.80
4840;DHT22;2434;48.486;7.964;2022-09-25T04:10:07;14.60;81.60
4840;DHT22;2434;48.486;7.964;2022-09-25T04:12:36;14.60;81.30
4840;DHT22;2434;48.486;7.964;2022-09-25T04:15:06;14.60;81.20
4840;DHT22;2434;48.486;7.964;2022-09-25T04:17:35;14.50;81.20
4840;DHT22;2434;48.486;7.964;2022-09-25T04:20:05;14.60;80.90
4840;DHT22;2434;48.486;7.964;2022-09-25T04:22:35;14.50;81.10
4840;DHT22;2434;48.486;7.964;2022-09-25T04:25:04;14.50;81.00
4840;DHT22;2434;48.486;7.964;2022-09-25T04:27:32;14.50;80.90
4840;DHT22;2434;48.486;7.964;2022-09-25T04:30:01;14.50;80.80
4840;DHT22;2434;48.486;7.964;2022-09-25T04:32:29;14.40;80.70
4840;DHT22;2434;48.486;7.964;2022-09-25T04:35:15;14.40;80.80
4840;DHT22;2434;48.486;7.964;2022-09-25T04:37:45;14.40;80.70
4840;DHT22;2434;48.486;7.964;2022-09-25T04:40:13;14.40;80.60
4840;DHT22;2434;48.486;7.964;2022-09-25T04:42:42;14.40;80.60
4840;DHT22;2434;48.486;7.964;2022-09-25T04:45:10;14.40;80.60
4840;DHT22;2434;48.486;7.964;2022-09-25T04:47:39;14.40;80.60
4840;DHT22;2434;48.486;7.964;2022-09-25T04:50:08;14.40;80.50
4840;DHT22;2434;48.486;7.964;2022-09-25T04:52:36;14.40;80.40
4840;DHT22;2434;48.486;7.964;2022-09-25T04:55:07;14.40;80.40
4840;DHT22;2434;48.486;7.964;2022-09-25T04:57:35;14.40;80.60
4840;DHT22;2434;48.486;7.964;2022-09-25T05:00:26;14.30;80.50
4840;DHT22;2434;48.486;7.964;2022-09-25T05:02:55;14.40;80.70
4840;DHT22;2434;48.486;7.964;2022-09-25T05:05:24;14.30;80.90
4840;DHT22;2434;48.486;7.964;2022-09-25T05:07:55;14.40;81.30
4840;DHT22;2434;48.486;7.964;2022-09-25T05:10:28;14.40;81.30
4840;DHT22;2434;48.486;7.964;2022-09-25T05:12:58;14.40;81.40
4840;DHT22;2434;48.486;7.964;2022-09-25T05:15:28;14.30;81.30
4840;DHT22;2434;48.486;7.964;2022-09-25T05:18:01;14.30;81.50
4840;DHT22;2434;48.486;7.964;2022-09-25T05:20:30;14.40;82.50
4840;DHT22;2434;48.486;7.964;2022-09-25T05:22:59;14.30;82.50
4840;DHT22;2434;48.486;7.964;2022-09-25T05:25:31;14.30;81.90
4840;DHT22;2434;48.486;7.964;2022-09-25T05:28:00;14.40;81.90
4840;DHT22;2434;48.486;7.964;2022-09-25T05:30:30;14.40;82.10
4840;DHT22;2434;48.486;7.964;2022-09-25T05:32:59;14.30;81.50
4840;DHT22;2434;48.486;7.964;2022-09-25T05:35:31;14.40;81.30
4840;DHT22;2434;48.486;7.964;2022-09-25T05:37:59;14.40;81.90
4840;DHT22;2434;48.486;7.964;2022-09-25T05:40:28;14.40;81.90
4840;DHT22;2434;48.486;7.964;2022-09-25T05:42:57;14.40;81.90
4840;DHT22;2434;48.486;7.964;2022-09-25T05:45:26;14.40;81.90
4840;DHT22;2434;48.486;7.964;2022-09-25T05:48:01;14.40;82.30
4840;DHT22;2434;48.486;7.964;2022-09-25T05:50:30;14.40;82.60
4840;DHT22;2434;48.486;7.964;2022-09-25T05:53:00;14.40;82.60
4840;DHT22;2434;48.486;7.964;2022-09-25T05:55:28;14.30;83.00
4840;DHT22;2434;48.486;7.964;2022-09-25T05:58:02;14.30;83.40
4840;DHT22;2434;48.486;7.964;2022-09-25T06:00:31;14.30;82.10
4840;DHT22;2434;48.486;7.964;2022-09-25T06:03:00;14.50;81.90
4840;DHT22;2434;48.486;7.964;2022-09-25T06:05:29;14.50;81.70
4840;DHT22;2434;48.486;7.964;2022-09-25T06:07:57;14.50;81.20
4840;DHT22;2434;48.486;7.964;2022-09-25T06:10:25;14.00;84.10
4840;DHT22;2434;48.486;7.964;2022-09-25T06:12:55;14.10;84.00
4840;DHT22;2434;48.486;7.964;2022-09-25T06:15:27;14.20;84.00
4840;DHT22;2434;48.486;7.964;2022-09-25T06:17:55;14.30;83.70
4840;DHT22;2434;48.486;7.964;2022-09-25T06:20:24;14.30;83.50
4840;DHT22;2434;48.486;7.964;2022-09-25T06:22:52;14.30;83.10
4840;DHT22;2434;48.486;7.964;2022-09-25T06:25:21;14.30;83.20
4840;DHT22;2434;48.486;7.964;2022-09-25T06:27:51;14.40;83.20
4840;DHT22;2434;48.486;7.964;2022-09-25T06:30:20;14.40;82.80
4840;DHT22;2434;48.486;7.964;2022-09-25T06:32:56;14.40;83.10
4840;DHT22;2434;48.486;7.964;2022-09-25T06:35:25;14.40;83.50
4840;DHT22;2434;48.486;7.964;2022-09-25T06:37:56;14.40;83.70
4840;DHT22;2434;48.486;7.964;2022-09-25T06:40:24;14.40;84.00
4840;DHT22;2434;48.486;7.964;2022-09-25T06:42:55;14.40;84.10
4840;DHT22;2434;48.486;7.964;2022-09-25T06:45:23;14.40;84.20
4840;DHT22;2434;48.486;7.964;2022-09-25T06:47:53;14.40;84.50
4840;DHT22;2434;48.486;7.964;2022-09-25T06:50:26;14.40;84.60
4840;DHT22;2434;48.486;7.964;2022-09-25T06:52:57;14.30;84.40
4840;DHT22;2434;48.486;7.964;2022-09-25T06:55:27;14.40;84.50
4840;DHT22;2434;48.486;7.964;2022-09-25T06:57:55;14.40;84.70
4840;DHT22;2434;48.486;7.964;2022-09-25T07:00:24;14.40;84.50
4840;DHT22;2434;48.486;7.964;2022-09-25T07:02:52;14.30;84.40
4840;DHT22;2434;48.486;7.964;2022-09-25T07:05:38;14.40;84.50
4840;DHT22;2434;48.486;7.964;2022-09-25T07:08:08;14.40;84.50
4840;DHT22;2434;48.486;7.964;2022-09-25T07:10:36;14.40;84.60
4840;DHT22;2434;48.486;7.964;2022-09-25T07:13:10;14.30;85.30
4840;DHT22;2434;48.486;7.964;2022-09-25T07:15:39;14.30;85.70
4840;DHT22;2434;48.486;7.964;2022-09-25T07:18:07;14.30;85.70
4840;DHT22;2434;48.486;7.964;2022-09-25T07:20:35;14.30;85.50
4840;DHT22;2434;48.486;7.964;2022-09-25T07:23:05;14.30;86.50
4840;DHT22;2434;48.486;7.964;2022-09-25T07:25:33;14.20;86.80
4840;DHT22;2434;48.486;7.964;2022-09-25T07:28:02;14.20;87.30
4840;DHT22;2434;48.486;7.964;2022-09-25T07:30:30;14.30;87.20
4840;DHT22;2434;48.486;7.964;2022-09-25T07:32:58;14.40;86.90
4840;DHT22;2434;48.486;7.964;2022-09-25T07:35:26;14.40;86.50
4840;DHT22;2434;48.486;7.964;2022-09-25T07:37:55;14.10;89.50
4840;DHT22;2434;48.486;7.964;2022-09-25T07:40:25;13.90;89.90
4840;DHT22;2434;48.486;7.964;2022-09-25T07:42:57;14.00;90.00
4840;DHT22;2434;48.486;7.964;2022-09-25T07:45:27;14.00;90.20
4840;DHT22;2434;48.486;7.964;2022-09-25T07:47:57;14.20;88.30
4840;DHT22;2434;48.486;7.964;2022-09-25T07:50:31;14.30;87.40
4840;DHT22;2434;48.486;7.964;2022-09-25T07:52:59;14.20;87.90
4840;DHT22;2434;48.486;7.964;2022-09-25T07:55:29;14.30;87.00
4840;DHT22;2434;48.486;7.964;2022-09-25T07:57:57;14.30;86.80
4840;DHT22;2434;48.486;7.964;2022-09-25T08:00:25;14.30;86.70
4840;DHT22;2434;48.486;7.964;2022-09-25T08:02:55;14.40;87.20
4840;DHT22;2434;48.486;7.964;2022-09-25T08:05:24;14.40;87.70
4840;DHT22;2434;48.486;7.964;2022-09-25T08:07:52;14.30;87.60
4840;DHT22;2434;48.486;7.964;2022-09-25T08:10:21;14.10;90.40
4840;DHT22;2434;48.486;7.964;2022-09-25T08:12:51;14.30;89.10
4840;DHT22;2434;48.486;7.964;2022-09-25T08:15:19;14.40;88.30
4840;DHT22;2434;48.486;7.964;2022-09-25T08:17:48;14.40;87.40
4840;DHT22;2434;48.486;7.964;2022-09-25T08:20:16;14.60;88.00
4840;DHT22;2434;48.486;7.964;2022-09-25T08:22:45;14.50;87.60
4840;DHT22;2434;48.486;7.964;2022-09-25T08:25:13;14.50;87.10
4840;DHT22;2434;48.486;7.964;2022-09-25T08:27:41;14.10;89.10
4840;DHT22;2434;48.486;7.964;2022-09-25T08:30:11;14.10;90.50
4840;DHT22;2434;48.486;7.964;2022-09-25T08:32:43;14.20;90.50
4840;DHT22;2434;48.486;7.964;2022-09-25T08:35:11;14.30;89.80
4840;DHT22;2434;48.486;7.964;2022-09-25T08:37:40;14.40;88.70
4840;DHT22;2434;48.486;7.964;2022-09-25T08:40:16;14.50;87.80
4840;DHT22;2434;48.486;7.964;2022-09-25T08:42:48;14.50;86.70
4840;DHT22;2434;48.486;7.964;2022-09-25T08:45:25;14.60;85.70
4840;DHT22;2434;48.486;7.964;2022-09-25T08:48:20;14.70;86.10
4840;DHT22;2434;48.486;7.964;2022-09-25T08:51:07;14.70;85.50
4840;DHT22;2434;48.486;7.964;2022-09-25T08:53:37;14.80;85.10
4840;DHT22;2434;48.486;7.964;2022-09-25T08:56:10;14.70;85.70
4840;DHT22;2434;48.486;7.964;2022-09-25T08:58:49;14.60;85.90
4840;DHT22;2434;48.486;7.964;2022-09-25T09:01:23;14.50;85.70
4840;DHT22;2434;48.486;7.964;2022-09-25T09:03:56;14.60;85.40
4840;DHT22;2434;48.486;7.964;2022-09-25T09:06:32;14.60;85.00
4840;DHT22;2434;48.486;7.964;2022-09-25T09:09:04;14.40;87.00
4840;DHT22;2434;48.486;7.964;2022-09-25T09:11:37;14.30;89.60
4840;DHT22;2434;48.486;7.964;2022-09-25T09:14:12;14.00;90.20
4840;DHT22;2434;48.486;7.964;2022-09-25T09:16:44;14.00;91.30
4840;DHT22;2434;48.486;7.964;2022-09-25T09:19:13;14.10;91.00
4840;DHT22;2434;48.486;7.964;2022-09-25T09:21:46;14.00;90.30
4840;DHT22;2434;48.486;7.964;2022-09-25T09:24:17;14.00;90.40
4840;DHT22;2434;48.486;7.964;2022-09-25T09:27:02;14.30;88.80
4840;DHT22;2434;48.486;7.964;2022-09-25T09:29:46;14.10;88.20
4840;DHT22;2434;48.486;7.964;2022-09-25T09:32:39;14.00;87.30
4840;DHT22;2434;48.486;7.964;2022-09-25T09:35:19;14.00;87.40
4840;DHT22;2434;48.486;7.964;2022-09-25T09:37:56;14.20;89.20
4840;DHT22;2434;48.486;7.964;2022-09-25T09:40:35;14.20;85.30
4840;DHT22;2434;48.486;7.964;2022-09-25T09:43:13;14.20;85.80
4840;DHT22;2434;48.486;7.964;2022-09-25T09:45:47;14.30;85.80
4840;DHT22;2434;48.486;7.964;2022-09-25T09:48:28;14.30;83.90
4840;DHT22;2434;48.486;7.964;2022-09-25T09:51:02;14.30;84.40
4840;DHT22;2434;48.486;7.964;2022-09-25T09:53:37;14.30;83.90
4840;DHT22;2434;48.486;7.964;2022-09-25T09:56:10;14.30;84.20
4840;DHT22;2434;48.486;7.964;2022-09-25T09:58:45;14.40;84.30
4840;DHT22;2434;48.486;7.964;2022-09-25T10:01:16;14.40;83.70
4840;DHT22;2434;48.486;7.964;2022-09-25T10:04:09;14.40;83.40
4840;DHT22;2434;48.486;7.964;2022-09-25T10:06:40;14.50;84.00
4840;DHT22;2434;48.486;7.964;2022-09-25T10:09:21;14.50;83.60
4840;DHT22;2434;48.486;7.964;2022-09-25T10:12:00;14.60;82.30
4840;DHT22;2434;48.486;7.964;2022-09-25T10:14:32;14.70;81.60
4840;DHT22;2434;48.486;7.964;2022-09-25T10:17:01;14.80;81.20
4840;DHT22;2434;48.486;7.964;2022-09-25T10:19:44;14.90;83.30
4840;DHT22;2434;48.486;7.964;2022-09-25T10:22:20;15.00;81.50
4840;DHT22;2434;48.486;7.964;2022-09-25T10:24:51;15.10;77.10
4840;DHT22;2434;48.486;7.964;2022-09-25T10:27:26;15.20;80.40
4840;DHT22;2434;48.486;7.964;2022-09-25T10:30:16;15.10;76.00
4840;DHT22;2434;48.486;7.964;2022-09-25T10:32:54;15.30;77.20
4840;DHT22;2434;48.486;7.964;2022-09-25T10:35:27;15.20;75.20
4840;DHT22;2434;48.486;7.964;2022-09-25T10:37:59;15.20;75.10
4840;DHT22;2434;48.486;7.964;2022-09-25T10:40:29;15.20;74.60
4840;DHT22;2434;48.486;7.964;2022-09-25T10:43:05;15.30;73.10
4840;DHT22;2434;48.486;7.964;2022-09-25T10:45:34;15.40;73.40
4840;DHT22;2434;48.486;7.964;2022-09-25T10:48:25;15.40;73.10
4840;DHT22;2434;48.486;7.964;2022-09-25T10:51:13;15.30;72.40
4840;DHT22;2434;48.486;7.964;2022-09-25T10:53:44;15.20;74.10
4840;DHT22;2434;48.486;7.964;2022-09-25T10:56:16;15.20;74.80
4840;DHT22;2434;48.486;7.964;2022-09-25T10:58:46;15.10;74.90
4840;DHT22;2434;48.486;7.964;2022-09-25T11:01:17;15.00;76.20
4840;DHT22;2434;48.486;7.964;2022-09-25T11:03:49;15.00;77.30
4840;DHT22;2434;48.486;7.964;2022-09-25T11:06:34;15.00;78.00
4840;DHT22;2434;48.486;7.964;2022-09-25T11:09:05;14.90;76.40
4840;DHT22;2434;48.486;7.964;2022-09-25T11:11:36;15.00;78.10
4840;DHT22;2434;48.486;7.964;2022-09-25T11:14:15;15.00;77.80
4840;DHT22;2434;48.486;7.964;2022-09-25T11:16:50;14.90;77.50
4840;DHT22;2434;48.486;7.964;2022-09-25T11:19:24;14.90;81.40
4840;DHT22;2434;48.486;7.964;2022-09-25T11:22:09;14.80;84.50
4840;DHT22;2434;48.486;7.964;2022-09-25T11:24:48;14.70;84.60
4840;DHT22;2434;48.486;7.964;2022-09-25T11:27:31;14.50;85.80
4840;DHT22;2434;48.486;7.964;2022-09-25T11:30:03;14.50;87.20
4840;DHT22;2434;48.486;7.964;2022-09-25T11:32:38;14.40;87.40
4840;DHT22;2434;48.486;7.964;2022-09-25T11:35:32;14.30;87.80
4840;DHT22;2434;48.486;7.964;2022-09-25T11:38:11;14.30;88.60
4840;DHT22;2434;48.486;7.964;2022-09-25T11:40:54;14.20;89.60
4840;DHT22;2434;48.486;7.964;2022-09-25T11:43:54;14.30;88.30
4840;DHT22;2434;48.486;7.964;2022-09-25T11:46:31;14.50;87.70
4840;DHT22;2434;48.486;7.964;2022-09-25T11:49:07;14.60;86.70
4840;DHT22;2434;48.486;7.964;2022-09-25T11:52:08;14.70;86.30
4840;DHT22;2434;48.486;7.964;2022-09-25T11:57:39;14.70;85.10
4840;DHT22;2434;48.486;7.964;2022-09-25T12:00:16;14.70;85.60
4840;DHT22;2434;48.486;7.964;2022-09-25T12:03:01;14.80;84.50
4840;DHT22;2434;48.486;7.964;2022-09-25T12:05:47;14.80;84.70
4840;DHT22;2434;48.486;7.964;2022-09-25T12:08:26;14.80;84.00
4840;DHT22;2434;48.486;7.964;2022-09-25T12:11:05;14.90;84.60
4840;DHT22;2434;48.486;7.964;2022-09-25T12:13:44;15.00;83.90
4840;DHT22;2434;48.486;7.964;2022-09-25T12:16:17;15.00;83.80
4840;DHT22;2434;48.486;7.964;2022-09-25T13:31:06;15.00;79.20
4840;DHT22;2434;48.486;7.964;2022-09-25T13:33:46;15.00;79.80
4840;DHT22;2434;48.486;7.964;2022-09-25T13:36:29;15.10;79.20
4840;DHT22;2434;48.486;7.964;2022-09-25T13:39:00;15.10;79.50
4840;DHT22;2434;48.486;7.964;2022-09-25T13:41:49;15.20;78.80
4840;DHT22;2434;48.486;7.964;2022-09-25T13:44:55;15.20;78.10
4840;DHT22;2434;48.486;7.964;2022-09-25T13:48:00;15.30;78.30
4840;DHT22;2434;48.486;7.964;2022-09-25T13:50:41;15.30;77.30
4840;DHT22;2434;48.486;7.964;2022-09-25T13:53:13;15.30;76.70
4840;DHT22;2434;48.486;7.964;2022-09-25T13:56:12;15.50;76.90
4840;DHT22;2434;48.486;7.964;2022-09-25T14:04:54;15.50;76.90
4840;DHT22;2434;48.486;7.964;2022-09-25T14:07:24;15.60;80.00
4840;DHT22;2434;48.486;7.964;2022-09-25T14:09:55;15.70;78.90
4840;DHT22;2434;48.486;7.964;2022-09-25T14:12:46;15.80;77.40
4840;DHT22;2434;48.486;7.964;2022-09-25T14:15:23;15.90;76.20
4840;DHT22;2434;48.486;7.964;2022-09-25T14:17:55;16.10;73.50
4840;DHT22;2434;48.486;7.964;2022-09-25T14:20:30;16.20;71.40
4840;DHT22;2434;48.486;7.964;2022-09-25T14:23:03;16.30;73.30
4840;DHT22;2434;48.486;7.964;2022-09-25T14:25:33;16.50;73.00
4840;DHT22;2434;48.486;7.964;2022-09-25T14:28:16;16.60;71.20
4840;DHT22;2434;48.486;7.964;2022-09-25T14:31:10;16.70;69.50
4840;DHT22;2434;48.486;7.964;2022-09-25T14:34:10;16.50;69.80
4840;DHT22;2434;48.486;7.964;2022-09-25T14:36:50;16.50;71.30
4840;DHT22;2434;48.486;7.964;2022-09-25T14:39:28;16.40;69.10
4840;DHT22;2434;48.486;7.964;2022-09-25T14:42:30;16.20;68.70
4840;DHT22;2434;48.486;7.964;2022-09-25T14:45:20;16.20;69.40
4840;DHT22;2434;48.486;7.964;2022-09-25T14:47:55;16.30;72.80
4840;DHT22;2434;48.486;7.964;2022-09-25T14:50:28;16.50;71.40
4840;DHT22;2434;48.486;7.964;2022-09-25T14:53:01;16.30;70.40
4840;DHT22;2434;48.486;7.964;2022-09-25T14:55:34;16.40;71.30
4840;DHT22;2434;48.486;7.964;2022-09-25T14:58:06;16.20;71.80
4840;DHT22;2434;48.486;7.964;2022-09-25T15:00:43;15.50;75.60
4840;DHT22;2434;48.486;7.964;2022-09-25T15:03:14;15.10;85.30
4840;DHT22;2434;48.486;7.964;2022-09-25T15:05:45;14.70;84.90
4840;DHT22;2434;48.486;7.964;2022-09-25T15:08:21;14.30;85.30
4840;DHT22;2434;48.486;7.964;2022-09-25T15:11:00;14.30;88.30
4840;DHT22;2434;48.486;7.964;2022-09-25T15:13:30;14.40;89.90
4840;DHT22;2434;48.486;7.964;2022-09-25T15:16:00;14.50;88.50
4840;DHT22;2434;48.486;7.964;2022-09-25T15:18:50;14.50;87.70
4840;DHT22;2434;48.486;7.964;2022-09-25T15:21:24;14.50;86.40
4840;DHT22;2434;48.486;7.964;2022-09-25T15:23:57;14.30;86.40
4840;DHT22;2434;48.486;7.964;2022-09-25T15:26:26;14.30;88.70
4840;DHT22;2434;48.486;7.964;2022-09-25T15:28:56;14.30;90.00
4840;DHT22;2434;48.486;7.964;2022-09-25T15:31:24;14.60;88.10
4840;DHT22;2434;48.486;7.964;2022-09-25T15:34:10;15.00;86.70
4840;DHT22;2434;48.486;7.964;2022-09-25T15:36:39;15.20;85.90
4840;DHT22;2434;48.486;7.964;2022-09-25T15:39:13;15.40;84.30
4840;DHT22;2434;48.486;7.964;2022-09-25T15:41:41;15.60;83.20
4840;DHT22;2434;48.486;7.964;2022-09-25T15:44:12;15.60;82.60
4840;DHT22;2434;48.486;7.964;2022-09-25T15:46:43;15.70;81.60
4840;DHT22;2434;48.486;7.964;2022-09-25T15:49:14;15.80;81.40
4840;DHT22;2434;48.486;7.964;2022-09-25T15:51:49;15.90;81.30
4840;DHT22;2434;48.486;7.964;2022-09-25T15:54:31;15.90;81.30
4840;DHT22;2434;48.486;7.964;2022-09-25T15:57:03;15.90;81.40
4840;DHT22;2434;48.486;7.964;2022-09-25T15:59:35;15.90;80.70
4840;DHT22;2434;48.486;7.964;2022-09-25T16:02:27;15.90;81.00
4840;DHT22;2434;48.486;7.964;2022-09-25T16:05:20;15.90;80.80
4840;DHT22;2434;48.486;7.964;2022-09-25T16:07:50;15.90;80.70
4840;DHT22;2434;48.486;7.964;2022-09-25T16:10:38;15.90;80.50
4840;DHT22;2434;48.486;7.964;2022-09-25T16:13:20;16.00;80.70
4840;DHT22;2434;48.486;7.964;2022-09-25T16:15:49;15.90;80.30
4840;DHT22;2434;48.486;7.964;2022-09-25T16:18:31;15.90;81.20
4840;DHT22;2434;48.486;7.964;2022-09-25T16:21:28;15.90;81.30
4840;DHT22;2434;48.486;7.964;2022-09-25T16:24:00;15.90;80.90
4840;DHT22;2434;48.486;7.964;2022-09-25T16:26:35;15.90;80.90
4840;DHT22;2434;48.486;7.964;2022-09-25T16:29:20;15.90;80.70
4840;DHT22;2434;48.486;7.964;2022-09-25T16:31:49;15.90;81.30
4840;DHT22;2434;48.486;7.964;2022-09-25T16:34:24;15.80;81.20
4840;DHT22;2434;48.486;7.964;2022-09-25T16:36:56;15.80;81.50
4840;DHT22;2434;48.486;7.964;2022-09-25T16:39:30;15.80;81.90
4840;DHT22;2434;48.486;7.964;2022-09-25T16:42:23;15.80;82.00
4840;DHT22;2434;48.486;7.964;2022-09-25T16:45:02;15.80;82.50
4840;DHT22;2434;48.486;7.964;2022-09-25T16:47:30;15.60;83.60
4840;DHT22;2434;48.486;7.964;2022-09-25T16:50:00;15.40;84.10
4840;DHT22;2434;48.486;7.964;2022-09-25T16:52:31;15.60;82.50
4840;DHT22;2434;48.486;7.964;2022-09-25T16:55:04;15.30;84.60
4840;DHT22;2434;48.486;7.964;2022-09-25T16:57:36;15.20;85.00
4840;DHT22;2434;48.486;7.964;2022-09-25T17:00:14;15.40;84.10
4840;DHT22;2434;48.486;7.964;2022-09-25T17:02:44;15.50;83.40
4840;DHT22;2434;48.486;7.964;2022-09-25T17:05:17;15.60;82.10
4840;DHT22;2434;48.486;7.964;2022-09-25T17:07:47;15.60;81.70
4840;DHT22;2434;48.486;7.964;2022-09-25T17:10:17;15.70;81.80
4840;DHT22;2434;48.486;7.964;2022-09-25T17:12:48;15.80;81.80
4840;DHT22;2434;48.486;7.964;2022-09-25T17:15:22;15.80;81.80
4840;DHT22;2434;48.486;7.964;2022-09-25T17:17:52;15.80;82.20
4840;DHT22;2434;48.486;7.964;2022-09-25T17:20:22;15.80;80.80
4840;DHT22;2434;48.486;7.964;2022-09-25T17:22:50;15.10;85.10
4840;DHT22;2434;48.486;7.964;2022-09-25T17:25:24;15.10;85.70
4840;DHT22;2434;48.486;7.964;2022-09-25T17:27:57;15.20;85.30
4840;DHT22;2434;48.486;7.964;2022-09-25T17:30:25;15.20;83.90
4840;DHT22;2434;48.486;7.964;2022-09-25T17:32:54;15.00;83.60
4840;DHT22;2434;48.486;7.964;2022-09-25T17:35:36;15.00;84.90
4840;DHT22;2434;48.486;7.964;2022-09-25T17:38:05;14.70;86.10
4840;DHT22;2434;48.486;7.964;2022-09-25T17:40:34;14.70;86.20
4840;DHT22;2434;48.486;7.964;2022-09-25T17:43:03;14.80;86.80
4840;DHT22;2434;48.486;7.964;2022-09-25T17:45:37;14.90;85.20
4840;DHT22;2434;48.486;7.964;2022-09-25T17:48:08;14.60;86.70
4840;DHT22;2434;48.486;7.964;2022-09-25T17:50:37;14.80;86.10
4840;DHT22;2434;48.486;7.964;2022-09-25T17:53:14;14.70;87.70
4840;DHT22;2434;48.486;7.964;2022-09-25T17:55:43;14.90;85.40
4840;DHT22;2434;48.486;7.964;2022-09-25T17:58:21;15.20;84.20
4840;DHT22;2434;48.486;7.964;2022-09-25T18:00:50;15.40;82.10
4840;DHT22;2434;48.486;7.964;2022-09-25T18:03:19;15.50;81.30
4840;DHT22;2434;48.486;7.964;2022-09-25T18:05:48;15.40;81.00
4840;DHT22;2434;48.486;7.964;2022-09-25T18:08:16;15.50;80.70
4840;DHT22;2434;48.486;7.964;2022-09-25T18:10:45;15.60;80.30